Flight Track Log - Related Links

Times and Time Zones

All times are in EST time to prevent confusion due to time zone crossing. See the EJA831 flight status page for this flight to view local times or setup timezone preferences in your user account.

Time Position Orientation Groundspeed Altitude Reporting Facility
EST Latitude Longitude Course Direction KTS MPH feet Rate Location/Type
Fri 11:12:33 AM 40.8144 -77.8842 73° East 330 380 4,200  Level New York Center
Fri 11:13:33 AM 40.7817 -77.8011 118° Southeast 204 235 7,000 3,150 Climbing New York Center
Fri 11:14:33 AM 40.8089 -77.6942 71° East 210 242 10,500 3,250 Climbing New York Center
Fri 11:15:33 AM 40.8386 -77.5764 72° East 264 304 13,500 2,600 Climbing New York Center
Fri 11:16:00 AM 40.9396 -77.3395 73° East  Level FlightAware Approximate
Fri 11:16:33 AM 40.8711 -77.4453 72° East 344 396 15,700  Level New York Center
Fri 11:17:00 AM 40.9590 -77.2556 73° East  Level FlightAware Approximate
Fri 11:17:33 AM 40.9069 -77.2867 73° East 396 456 17,000  Level New York Center
Fri 11:18:33 AM 40.9422 -77.1389 72° East 412 474 17,000  Level New York Center
Fri 11:19:33 AM 40.9750 -76.9936 73° East 412 474 17,000  Level New York Center
Fri 11:20:33 AM 41.0097 -76.8456 73° East 412 474 17,000  Level New York Center
Fri 11:21:33 AM 41.0442 -76.7000 73° East 412 474 17,000  Level New York Center
Fri 11:22:33 AM 41.0786 -76.5514 73° East 417 480 17,000  Level New York Center
Fri 11:23:33 AM 41.1128 -76.4056 73° East 411 473 17,000  Level New York Center
Fri 11:24:33 AM 41.1419 -76.2731 74° East 411 473 17,000  Level New York Center
Fri 11:25:33 AM 41.1808 -76.1025 73° East 425 489 17,000  Level New York Center
Fri 11:26:33 AM 41.2147 -75.9533 73° East 433 498 17,000  Level New York Center
Fri 11:27:33 AM 41.2483 -75.8014 74° East 426 490 17,000 -100 Level New York Center
Fri 11:28:33 AM 41.2625 -75.6619 82° East 426 490 16,800 -1,400 Descending New York Center
Fri 11:29:33 AM 41.2106 -75.5036 114° Southeast 407 468 14,200 -1,950 Descending New York Center
Fri 11:30:33 AM 41.1678 -75.3711 113° Southeast 391 450 12,900 -1,700 Descending New York Center
Fri 11:31:33 AM 41.1247 -75.2497 115° Southeast 379 436 10,800 -1,950 Descending New York Center
Fri 11:32:33 AM 41.0931 -75.1486 113° Southeast 343 395 9,000 -1,750 Descending New York Center
Fri 11:33:33 AM 41.0572 -75.0472 115° Southeast 317 365 7,300 -1,450 Descending New York Center
Fri 11:34:33 AM 41.0275 -74.9461 111° Southeast 297 342 6,100 -1,150 Descending New York Center
Fri 11:35:33 AM 41.0275 -74.8253 90° East 298 343 5,000 -1,000 Descending New York Center
Fri 11:36:33 AM 41.0264 -74.7289 91° East 287 330 4,100 -500 Descending New York Center
Fri 11:37:33 AM 41.0261 -74.6133 90° East 287 330 4,000  Descending New York Center
Fri 11:38:33 AM 41.0272 -74.5172 89° East 287 330 4,100 -150 Climbing New York Center
Fri 11:39:33 AM 41.0325 -74.4131 86° East 273 314 3,700 -606 Descending New York Center
Fri 11:40:12 AM 41.0333 -74.3500 89° East 248 285 3,100 -452 Descending New York TRACON
Fri 11:41:06 AM 41.0500 -74.2667 75° East 247 284 3,000 -500 Descending New York TRACON
Fri 11:42:12 AM 41.0333 -74.1833 105° East 237 273 2,100 -500 Descending New York TRACON
Fri 11:43:06 AM 41.0333 -74.1000 90° East 204 235 2,000  Descending New York TRACON
Fri 11:44:06 AM 40.9833 -74.0500 143° Southeast 199 229 2,100 -53 Climbing New York TRACON
Fri 11:45:00 AM 40.9500 -74.0500 180° South 172 198 1,900 -474 Descending New York TRACON
Fri 11:46:00 AM 40.9167 -74.0500 180° South 128 147 1,200 -700 Descending New York TRACON
Fri 11:47:00 AM 40.8833 -74.0500 180° South 115 132 500 -700 Descending New York TRACON
Fri 11:49:00 AM 40.8500 -74.0500 180° South  Level FlightAware Approximate

Login

Don't have an account? Register now (free) for customized features, flight alerts, and more!